Time;durP1;ratioP1;P1;durP2;ratioP2;P2;SDS_P1;SDS_P2;PMS_P1;PMS_P2;Temp;Humidity;BMP_temperature;BMP_pressure;BME280_temperature;BME280_humidity;BME280_pressure;Samples;Min_cycle;Max_cycle;Signal;HPM_P1;HPM_P2
2021/07/12 00:01:44;;;;;;;1.65;1.10;;;;;;;;;;5026740;28;20025;-46
2021/07/12 00:04:09;;;;;;;2.08;1.00;;;;;;;;;;5034610;28;20481;-46
2021/07/12 00:06:34;;;;;;;3.45;1.20;;;;;;;;;;5035268;28;20066;-46
2021/07/12 00:09:00;;;;;;;2.00;0.88;;;;;;;;;;5028632;28;20543;-46
2021/07/12 00:11:26;;;;;;;2.13;1.02;;;;;;;;;;5035021;28;20017;-47
2021/07/12 00:13:52;;;;;;;4.38;1.90;;;;;;;;;;5031448;28;20056;-47
2021/07/12 00:16:17;;;;;;;3.15;1.98;;;;;;;;;;5036192;28;20033;-45
2021/07/12 00:18:43;;;;;;;5.03;1.13;;;;;;;;;;5036125;28;20653;-45
2021/07/12 00:21:08;;;;;;;1.45;1.10;;;;;;;;;;5038996;28;20035;-45
2021/07/12 00:23:33;;;;;;;1.58;1.05;;;;;;;;;;5035585;28;20024;-48
2021/07/12 00:25:59;;;;;;;3.78;1.52;;;;;;;;;;5031933;28;20420;-46
2021/07/12 00:28:24;;;;;;;0.73;0.40;;;;;;;;;;5034642;28;20124;-47
2021/07/12 00:30:49;;;;;;;1.45;1.02;;;;;;;;;;5029045;28;20025;-46
2021/07/12 00:33:15;;;;;;;10.02;1.33;;;;;;;;;;5033361;28;20051;-46
2021/07/12 00:35:40;;;;;;;4.47;1.30;;;;;;;;;;5030174;28;20114;-46
2021/07/12 00:38:05;;;;;;;1.15;0.57;;;;;;;;;;5030005;28;20474;-46
2021/07/12 00:40:31;;;;;;;4.60;1.23;;;;;;;;;;5034816;28;20029;-47
2021/07/12 00:42:56;;;;;;;1.38;1.23;;;;;;;;;;5032798;28;20471;-44
2021/07/12 00:45:24;;;;;;;1.73;1.27;;;;;;;;;;5030351;28;20025;-46
2021/07/12 00:47:50;;;;;;;1.75;1.13;;;;;;;;;;5031307;28;20481;-47
2021/07/12 00:50:16;;;;;;;4.03;1.83;;;;;;;;;;5031038;28;20037;-45
2021/07/12 00:52:41;;;;;;;1.50;1.02;;;;;;;;;;5031700;28;20025;-46
2021/07/12 00:55:19;;;;;;;1.27;0.60;;;;;;;;;;5033308;28;20132;-44
2021/07/12 00:57:44;;;;;;;1.27;0.88;;;;;;;;;;5031487;28;20020;-45
2021/07/12 01:00:11;;;;;;;2.15;1.42;;;;;;;;;;5032318;28;20017;-46
2021/07/12 01:02:36;;;;;;;1.85;1.05;;;;;;;;;;5038312;28;20056;-46
2021/07/12 01:05:03;;;;;;;2.90;1.33;;;;;;;;;;5039015;28;20052;-46
2021/07/12 01:07:28;;;;;;;1.58;0.75;;;;;;;;;;5036211;28;20084;-44
2021/07/12 01:09:53;;;;;;;3.10;1.17;;;;;;;;;;5037874;28;20053;-47
2021/07/12 01:12:28;;;;;;;9.05;1.65;;;;;;;;;;5034898;28;20044;-44
2021/07/12 01:15:14;;;;;;;3.88;1.73;;;;;;;;;;5034020;28;20017;-46
2021/07/12 01:17:42;;;;;;;6.97;1.92;;;;;;;;;;5040881;28;20029;-44
2021/07/12 01:20:33;;;;;;;4.20;1.20;;;;;;;;;;5034973;28;20064;-48
2021/07/12 01:23:04;;;;;;;2.25;1.25;;;;;;;;;;5035168;28;20079;-45
2021/07/12 01:25:48;;;;;;;1.85;1.00;;;;;;;;;;5036407;28;20482;-46
2021/07/12 01:28:25;;;;;;;6.95;1.83;;;;;;;;;;5036545;28;20024;-45
2021/07/12 01:31:06;;;;;;;3.85;1.35;;;;;;;;;;5036076;28;20060;-47
2021/07/12 01:33:37;;;;;;;2.70;1.33;;;;;;;;;;5031569;28;20083;-45
2021/07/12 01:36:11;;;;;;;2.22;1.17;;;;;;;;;;5029618;28;20673;-46
2021/07/12 01:38:45;;;;;;;2.75;1.58;;;;;;;;;;5024943;28;20468;-48
2021/07/12 01:41:25;;;;;;;1.83;1.10;;;;;;;;;;5037441;28;20052;-45
2021/07/12 01:44:02;;;;;;;2.25;1.45;;;;;;;;;;5036447;28;20733;-47
2021/07/12 01:46:38;;;;;;;10.18;2.00;;;;;;;;;;5036564;28;20059;-44
2021/07/12 01:49:27;;;;;;;4.10;1.25;;;;;;;;;;5035122;28;20044;-44
2021/07/12 01:51:55;;;;;;;3.40;2.00;;;;;;;;;;5034721;28;20681;-45
2021/07/12 01:54:30;;;;;;;3.15;1.38;;;;;;;;;;5034483;28;20022;-46
2021/07/12 01:56:58;;;;;;;3.53;1.27;;;;;;;;;;5035159;28;20613;-46
2021/07/12 01:59:35;;;;;;;1.73;1.20;;;;;;;;;;5037885;28;20373;-45
2021/07/12 02:02:01;;;;;;;7.28;1.20;;;;;;;;;;5033897;28;20029;-48
2021/07/12 02:04:28;;;;;;;1.10;0.75;;;;;;;;;;5036265;28;20055;-46
2021/07/12 02:06:54;;;;;;;2.58;1.58;;;;;;;;;;5041074;28;20021;-44
2021/07/12 02:09:20;;;;;;;5.85;1.08;;;;;;;;;;5034106;28;20053;-44
2021/07/12 02:11:46;;;;;;;5.90;1.48;;;;;;;;;;5033388;28;20055;-45
2021/07/12 02:14:13;;;;;;;1.83;1.50;;;;;;;;;;5039584;28;20009;-46
2021/07/12 02:16:38;;;;;;;4.47;1.50;;;;;;;;;;5034501;28;20521;-48
2021/07/12 02:19:05;;;;;;;4.28;1.17;;;;;;;;;;5034443;28;20021;-45
2021/07/12 02:21:33;;;;;;;3.80;1.13;;;;;;;;;;5033631;28;20027;-46
2021/07/12 02:24:03;;;;;;;1.23;0.80;;;;;;;;;;5034596;28;20022;-45
2021/07/12 02:26:29;;;;;;;2.38;1.52;;;;;;;;;;5033426;28;20030;-44
2021/07/12 02:28:56;;;;;;;2.72;1.50;;;;;;;;;;5034699;28;20040;-46
2021/07/12 02:31:22;;;;;;;2.92;1.17;;;;;;;;;;5036291;28;20073;-46
2021/07/12 02:33:47;;;;;;;6.72;1.35;;;;;;;;;;5039035;28;20535;-45
2021/07/12 02:36:15;;;;;;;3.05;1.02;;;;;;;;;;5032299;28;20037;-46
2021/07/12 02:38:43;;;;;;;1.95;1.05;;;;;;;;;;5035242;28;20029;-44
2021/07/12 02:41:20;;;;;;;5.47;1.25;;;;;;;;;;5032151;28;20581;-46
2021/07/12 02:43:47;;;;;;;1.30;0.77;;;;;;;;;;5034898;28;20504;-48
2021/07/12 02:46:12;;;;;;;5.68;1.65;;;;;;;;;;5033658;28;20033;-46
2021/07/12 02:48:38;;;;;;;5.20;1.52;;;;;;;;;;5037880;28;20083;-48
2021/07/12 02:51:05;;;;;;;4.07;2.08;;;;;;;;;;5034805;28;20052;-49
2021/07/12 02:53:38;;;;;;;2.85;1.63;;;;;;;;;;5035612;28;20056;-51
2021/07/12 02:56:04;;;;;;;8.50;1.15;;;;;;;;;;5037667;28;20013;-49
2021/07/12 02:58:39;;;;;;;2.90;1.30;;;;;;;;;;5037512;28;20017;-48
2021/07/12 03:01:07;;;;;;;3.67;2.08;;;;;;;;;;5032378;28;20013;-47
2021/07/12 03:03:32;;;;;;;5.78;1.95;;;;;;;;;;5031935;28;20017;-48
2021/07/12 03:06:09;;;;;;;7.05;2.08;;;;;;;;;;5032883;28;20589;-47
2021/07/12 03:08:58;;;;;;;2.35;1.50;;;;;;;;;;5033181;28;20075;-48
2021/07/12 03:11:25;;;;;;;6.47;2.17;;;;;;;;;;5029093;28;20120;-51
2021/07/12 03:13:50;;;;;;;5.78;1.80;;;;;;;;;;5039218;28;20025;-46
2021/07/12 03:16:16;;;;;;;3.75;1.13;;;;;;;;;;5034061;28;20060;-44
2021/07/12 03:18:45;;;;;;;3.88;2.05;;;;;;;;;;5029026;28;20513;-46
2021/07/12 03:21:11;;;;;;;2.88;1.80;;;;;;;;;;5035904;28;20078;-48
2021/07/12 03:23:44;;;;;;;3.67;1.45;;;;;;;;;;5035472;28;20083;-47
2021/07/12 03:26:11;;;;;;;9.70;1.70;;;;;;;;;;5034813;28;20036;-46
2021/07/12 03:28:37;;;;;;;2.83;1.60;;;;;;;;;;5036792;28;20033;-47
2021/07/12 03:31:03;;;;;;;4.22;1.80;;;;;;;;;;5032594;28;20032;-47
2021/07/12 03:33:30;;;;;;;5.38;1.52;;;;;;;;;;5029849;28;20197;-46
2021/07/12 03:35:55;;;;;;;5.65;1.92;;;;;;;;;;5032152;28;20021;-45
2021/07/12 03:38:21;;;;;;;1.42;1.17;;;;;;;;;;5036118;28;20028;-47
2021/07/12 03:40:47;;;;;;;7.15;2.53;;;;;;;;;;5036344;28;20018;-45
2021/07/12 03:43:13;;;;;;;2.60;1.20;;;;;;;;;;5031821;28;20112;-46
2021/07/12 03:45:39;;;;;;;1.98;1.23;;;;;;;;;;5032999;28;20057;-47
2021/07/12 03:48:05;;;;;;;2.30;1.48;;;;;;;;;;5036290;28;20080;-46
2021/07/12 03:50:30;;;;;;;4.03;1.83;;;;;;;;;;5031275;28;20035;-48
2021/07/12 03:52:55;;;;;;;1.70;1.17;;;;;;;;;;5038012;28;20033;-50
2021/07/12 03:55:22;;;;;;;3.47;1.52;;;;;;;;;;5032357;28;20380;-47
2021/07/12 03:57:50;;;;;;;3.38;2.20;;;;;;;;;;5036022;28;20494;-44
2021/07/12 04:00:25;;;;;;;6.20;2.13;;;;;;;;;;5038183;28;20507;-47
2021/07/12 04:02:51;;;;;;;2.13;1.35;;;;;;;;;;5037210;28;20060;-43
2021/07/12 04:05:18;;;;;;;1.85;1.02;;;;;;;;;;5035708;28;20048;-43
2021/07/12 04:07:43;;;;;;;2.85;1.80;;;;;;;;;;5037330;28;20049;-45
2021/07/12 04:10:10;;;;;;;1.88;1.13;;;;;;;;;;5033611;28;20031;-45
2021/07/12 04:12:35;;;;;;;3.40;1.27;;;;;;;;;;5034223;28;20080;-44
2021/07/12 04:15:01;;;;;;;7.03;2.28;;;;;;;;;;5029102;28;20029;-47
2021/07/12 04:17:26;;;;;;;1.80;0.80;;;;;;;;;;5032452;28;20066;-45
2021/07/12 04:19:51;;;;;;;4.65;1.40;;;;;;;;;;5035532;28;20839;-45
2021/07/12 04:22:17;;;;;;;3.50;2.00;;;;;;;;;;5027659;28;20049;-48
2021/07/12 04:24:42;;;;;;;5.15;2.35;;;;;;;;;;5028267;28;20026;-47
2021/07/12 04:27:07;;;;;;;4.45;1.33;;;;;;;;;;5034120;28;20416;-45
2021/07/12 04:29:33;;;;;;;4.00;1.27;;;;;;;;;;5034656;28;20112;-44
2021/07/12 04:32:00;;;;;;;3.15;1.25;;;;;;;;;;5035265;28;20123;-44
2021/07/12 04:34:26;;;;;;;3.58;1.88;;;;;;;;;;5035737;28;20029;-44
2021/07/12 04:36:51;;;;;;;4.05;1.27;;;;;;;;;;5029759;28;20076;-45
2021/07/12 04:39:17;;;;;;;1.88;0.82;;;;;;;;;;5030813;28;20492;-46
2021/07/12 04:41:42;;;;;;;2.92;1.48;;;;;;;;;;5029797;28;20052;-47
2021/07/12 04:44:08;;;;;;;6.70;1.95;;;;;;;;;;5033046;28;20033;-45
2021/07/12 04:46:33;;;;;;;3.15;1.85;;;;;;;;;;5031865;28;20107;-44
2021/07/12 04:48:58;;;;;;;4.32;1.95;;;;;;;;;;5032373;28;20588;-43
2021/07/12 04:51:24;;;;;;;2.13;1.60;;;;;;;;;;5032402;28;20021;-46
2021/07/12 04:53:49;;;;;;;4.50;1.48;;;;;;;;;;5032335;28;20025;-45
2021/07/12 04:56:14;;;;;;;7.10;2.80;;;;;;;;;;5033520;28;20078;-46
2021/07/12 04:58:45;;;;;;;6.05;1.80;;;;;;;;;;5035233;28;20469;-46
2021/07/12 05:01:11;;;;;;;6.97;1.60;;;;;;;;;;5031073;28;20013;-47
2021/07/12 05:03:36;;;;;;;6.88;2.47;;;;;;;;;;5034179;28;20384;-44
2021/07/12 05:06:02;;;;;;;8.07;1.85;;;;;;;;;;5033659;28;20632;-47
2021/07/12 05:08:27;;;;;;;4.97;2.55;;;;;;;;;;5032125;28;20531;-44
2021/07/12 05:10:52;;;;;;;6.25;2.10;;;;;;;;;;5034257;28;20392;-44
2021/07/12 05:13:18;;;;;;;3.03;2.20;;;;;;;;;;5029089;28;20034;-45
2021/07/12 05:15:43;;;;;;;7.03;2.17;;;;;;;;;;5030989;28;20026;-45
2021/07/12 05:18:08;;;;;;;2.95;1.67;;;;;;;;;;5032457;28;20021;-45
2021/07/12 05:20:34;;;;;;;3.30;2.30;;;;;;;;;;5032854;28;20400;-47
2021/07/12 05:22:59;;;;;;;29.02;26.63;;;;;;;;;;5030744;28;20057;-50
2021/07/12 05:25:26;;;;;;;23.48;20.50;;;;;;;;;;5031294;28;20030;-46
2021/07/12 05:27:51;;;;;;;6.18;3.00;;;;;;;;;;5031811;28;20029;-49
2021/07/12 05:30:17;;;;;;;2.67;1.55;;;;;;;;;;5035004;28;20029;-48
2021/07/12 05:32:42;;;;;;;4.85;1.75;;;;;;;;;;5033903;28;20060;-48
2021/07/12 05:35:08;;;;;;;19.52;3.90;;;;;;;;;;5035968;28;20026;-48
2021/07/12 05:37:33;;;;;;;5.55;2.45;;;;;;;;;;5034915;28;20144;-50
2021/07/12 05:39:58;;;;;;;4.75;1.95;;;;;;;;;;5031233;28;20025;-48
2021/07/12 05:42:25;;;;;;;16.48;4.05;;;;;;;;;;5033205;28;20117;-47
2021/07/12 05:44:51;;;;;;;2.42;2.10;;;;;;;;;;5033591;28;20267;-49
2021/07/12 05:47:16;;;;;;;12.57;3.67;;;;;;;;;;5029858;28;20492;-46
2021/07/12 05:49:41;;;;;;;2.60;1.27;;;;;;;;;;5036207;28;20491;-48
2021/07/12 05:52:06;;;;;;;7.18;2.85;;;;;;;;;;5037483;28;20121;-48
2021/07/12 05:54:32;;;;;;;9.77;5.05;;;;;;;;;;5033138;28;20514;-48
2021/07/12 05:56:57;;;;;;;4.30;2.38;;;;;;;;;;5036726;28;20021;-44
2021/07/12 05:59:22;;;;;;;17.02;3.47;;;;;;;;;;5034987;28;20029;-45
2021/07/12 06:01:48;;;;;;;10.65;2.95;;;;;;;;;;5031118;28;20022;-45
2021/07/12 06:04:13;;;;;;;9.93;2.90;;;;;;;;;;5033251;28;20032;-46
2021/07/12 06:06:38;;;;;;;4.53;2.33;;;;;;;;;;5032218;28;20029;-51
2021/07/12 06:09:04;;;;;;;24.30;3.22;;;;;;;;;;5038037;28;20056;-47
2021/07/12 06:11:29;;;;;;;9.40;3.92;;;;;;;;;;5029079;28;20575;-48
2021/07/12 06:13:54;;;;;;;16.88;3.75;;;;;;;;;;5030910;28;20041;-50
2021/07/12 06:16:20;;;;;;;12.27;3.90;;;;;;;;;;5032497;28;20017;-48
2021/07/12 06:18:45;;;;;;;4.32;2.22;;;;;;;;;;5034289;28;20754;-46
2021/07/12 06:21:10;;;;;;;11.88;4.22;;;;;;;;;;5032675;28;20429;-48
2021/07/12 06:23:35;;;;;;;11.35;4.55;;;;;;;;;;5031603;28;20014;-48
2021/07/12 06:26:01;;;;;;;18.85;2.63;;;;;;;;;;5034553;28;20644;-46
2021/07/12 06:28:26;;;;;;;4.38;1.67;;;;;;;;;;5033129;28;20043;-48
2021/07/12 06:30:51;;;;;;;39.92;6.32;;;;;;;;;;5037501;28;20021;-45
2021/07/12 06:33:17;;;;;;;15.60;4.15;;;;;;;;;;5034627;28;20029;-46
2021/07/12 06:35:42;;;;;;;10.90;3.00;;;;;;;;;;5038435;28;20079;-48
2021/07/12 06:38:07;;;;;;;14.45;3.30;;;;;;;;;;5033527;28;20373;-43
2021/07/12 06:40:33;;;;;;;11.88;4.10;;;;;;;;;;5033463;28;20029;-47
2021/07/12 06:42:58;;;;;;;13.02;3.88;;;;;;;;;;5036940;28;20013;-45
2021/07/12 06:45:23;;;;;;;24.92;4.60;;;;;;;;;;5036783;28;20021;-48
2021/07/12 06:47:49;;;;;;;12.55;3.25;;;;;;;;;;5036814;28;20878;-44
2021/07/12 06:50:14;;;;;;;12.95;5.07;;;;;;;;;;5038611;28;20025;-45
2021/07/12 06:52:39;;;;;;;8.43;3.22;;;;;;;;;;5033775;28;20495;-49
2021/07/12 06:55:05;;;;;;;5.35;2.88;;;;;;;;;;5033332;28;20400;-47
2021/07/12 06:57:30;;;;;;;12.68;2.90;;;;;;;;;;5033288;28;20021;-47
2021/07/12 06:59:56;;;;;;;7.50;4.07;;;;;;;;;;5034038;28;20515;-45
2021/07/12 07:02:22;;;;;;;4.13;2.72;;;;;;;;;;5031205;28;20125;-46
2021/07/12 07:04:47;;;;;;;3.85;1.73;;;;;;;;;;5027711;28;20487;-46
2021/07/12 07:07:12;;;;;;;21.67;2.90;;;;;;;;;;5035096;28;20509;-46
2021/07/12 07:09:38;;;;;;;7.22;2.05;;;;;;;;;;5032379;28;20040;-47
2021/07/12 07:12:03;;;;;;;3.90;2.33;;;;;;;;;;5033453;28;20024;-47
2021/07/12 07:14:29;;;;;;;16.67;5.00;;;;;;;;;;5032726;28;20572;-46
2021/07/12 07:16:54;;;;;;;3.85;2.80;;;;;;;;;;5038151;28;20504;-44
2021/07/12 07:19:19;;;;;;;4.15;2.47;;;;;;;;;;5035896;28;20088;-45
2021/07/12 07:21:47;;;;;;;12.85;4.00;;;;;;;;;;5027066;28;20108;-45
2021/07/12 07:24:13;;;;;;;17.27;4.35;;;;;;;;;;5028112;28;20021;-48
2021/07/12 07:26:38;;;;;;;7.22;1.73;;;;;;;;;;5031034;28;20014;-46
2021/07/12 07:29:03;;;;;;;4.28;2.13;;;;;;;;;;5033138;28;20026;-44
2021/07/12 07:31:29;;;;;;;17.63;11.48;;;;;;;;;;5031483;28;20033;-46
2021/07/12 07:33:54;;;;;;;11.57;6.88;;;;;;;;;;5028108;28;20460;-46
2021/07/12 07:36:20;;;;;;;4.95;3.90;;;;;;;;;;5033795;28;20053;-45
2021/07/12 07:38:45;;;;;;;4.90;1.67;;;;;;;;;;5035885;28;20365;-48
2021/07/12 07:41:11;;;;;;;4.20;2.08;;;;;;;;;;5034914;28;20078;-46
2021/07/12 07:43:36;;;;;;;7.00;1.48;;;;;;;;;;5032017;28;20075;-48
2021/07/12 07:46:02;;;;;;;6.40;2.95;;;;;;;;;;5030357;28;20041;-45
2021/07/12 07:48:27;;;;;;;4.70;3.50;;;;;;;;;;5033577;28;20100;-44
2021/07/12 07:50:52;;;;;;;3.53;2.88;;;;;;;;;;5032014;28;20498;-46
2021/07/12 07:53:18;;;;;;;4.75;1.85;;;;;;;;;;5030955;28;20121;-44
2021/07/12 07:55:43;;;;;;;3.65;1.17;;;;;;;;;;5031148;28;20021;-45
2021/07/12 07:58:08;;;;;;;2.55;1.48;;;;;;;;;;5027876;28;20421;-43
2021/07/12 08:00:34;;;;;;;1.58;1.00;;;;;;;;;;5033309;28;20052;-43
2021/07/12 08:02:59;;;;;;;4.75;1.58;;;;;;;;;;5032884;28;20579;-44
2021/07/12 08:05:25;;;;;;;7.68;1.65;;;;;;;;;;5037448;28;20116;-43
2021/07/12 08:07:50;;;;;;;7.07;3.28;;;;;;;;;;5034637;28;20061;-45
2021/07/12 08:10:16;;;;;;;1.88;1.25;;;;;;;;;;5037099;28;20020;-47
2021/07/12 08:12:42;;;;;;;7.95;2.17;;;;;;;;;;5033358;28;20515;-42
2021/07/12 08:15:09;;;;;;;8.02;2.45;;;;;;;;;;5030939;28;20053;-45
2021/07/12 08:17:35;;;;;;;9.48;3.83;;;;;;;;;;5032387;28;20033;-46
2021/07/12 08:20:00;;;;;;;3.30;2.30;;;;;;;;;;5035184;28;20020;-45
2021/07/12 08:22:25;;;;;;;5.03;1.60;;;;;;;;;;5037897;28;20802;-46
2021/07/12 08:24:51;;;;;;;4.30;2.22;;;;;;;;;;5035461;28;20025;-46
2021/07/12 08:27:16;;;;;;;9.00;5.00;;;;;;;;;;5034667;28;20025;-45
2021/07/12 08:29:41;;;;;;;2.92;1.40;;;;;;;;;;5034407;28;20017;-46
2021/07/12 08:32:07;;;;;;;6.18;2.80;;;;;;;;;;5034718;28;20116;-46
2021/07/12 08:34:38;;;;;;;8.73;2.55;;;;;;;;;;5034026;28;20033;-44
2021/07/12 08:37:04;;;;;;;1.70;1.08;;;;;;;;;;5027593;28;20056;-46
2021/07/12 08:39:29;;;;;;;3.58;1.98;;;;;;;;;;5033557;28;20578;-44
2021/07/12 08:41:54;;;;;;;9.20;2.95;;;;;;;;;;5035504;28;20095;-46
2021/07/12 08:44:20;;;;;;;5.28;2.90;;;;;;;;;;5037202;28;20392;-49
2021/07/12 08:46:45;;;;;;;8.65;2.58;;;;;;;;;;5030216;28;20409;-44
2021/07/12 08:49:10;;;;;;;11.57;4.53;;;;;;;;;;5032230;28;20020;-46
2021/07/12 08:51:36;;;;;;;18.23;4.13;;;;;;;;;;5030396;28;20433;-46
2021/07/12 08:54:01;;;;;;;5.25;2.53;;;;;;;;;;5026858;28;20497;-48
2021/07/12 08:56:26;;;;;;;5.57;2.38;;;;;;;;;;5035053;28;20033;-45
2021/07/12 08:58:54;;;;;;;9.40;2.78;;;;;;;;;;5035077;28;20597;-45
2021/07/12 09:01:19;;;;;;;8.30;4.25;;;;;;;;;;5037542;28;20048;-48
2021/07/12 09:03:50;;;;;;;5.60;2.28;;;;;;;;;;5032575;28;20025;-45
2021/07/12 09:06:17;;;;;;;7.57;6.93;;;;;;;;;;5033012;28;20070;-44
2021/07/12 09:08:53;;;;;;;3.00;1.20;;;;;;;;;;5037905;28;20095;-50
2021/07/12 09:11:28;;;;;;;5.15;2.90;;;;;;;;;;5032781;28;20025;-44
2021/07/12 09:13:55;;;;;;;6.65;3.45;;;;;;;;;;5033734;28;20733;-50
2021/07/12 09:16:26;;;;;;;11.15;2.58;;;;;;;;;;5032470;28;20021;-47
2021/07/12 09:19:01;;;;;;;8.55;3.45;;;;;;;;;;5030161;28;20477;-45
2021/07/12 09:21:31;;;;;;;13.63;1.63;;;;;;;;;;5032359;28;20028;-46
2021/07/12 09:24:11;;;;;;;3.78;1.65;;;;;;;;;;5036814;28;20040;-47
2021/07/12 09:26:39;;;;;;;2.90;2.03;;;;;;;;;;5037708;28;20019;-47
2021/07/12 09:29:05;;;;;;;5.32;1.30;;;;;;;;;;5037560;28;20061;-48
2021/07/12 09:31:32;;;;;;;3.13;2.17;;;;;;;;;;5028803;28;20067;-50
2021/07/12 09:34:01;;;;;;;9.93;1.85;;;;;;;;;;5050749;28;20638;-51
2021/07/12 09:36:30;;;;;;;9.00;2.75;;;;;;;;;;5036363;28;20067;-49
2021/07/12 09:38:55;;;;;;;3.95;2.13;;;;;;;;;;5034716;28;20032;-49
2021/07/12 09:41:27;;;;;;;9.93;3.00;;;;;;;;;;5035256;28;20021;-47
2021/07/12 09:44:02;;;;;;;20.92;2.10;;;;;;;;;;5036527;28;20104;-48
2021/07/12 09:46:30;;;;;;;6.35;2.53;;;;;;;;;;5033223;28;20037;-48
2021/07/12 09:49:15;;;;;;;14.70;4.38;;;;;;;;;;5033984;28;20025;-45
2021/07/12 09:51:41;;;;;;;3.80;2.42;;;;;;;;;;5034538;28;20100;-46
2021/07/12 09:54:15;;;;;;;19.25;3.63;;;;;;;;;;5035644;28;20445;-46
2021/07/12 09:56:40;;;;;;;20.10;3.88;;;;;;;;;;5035394;28;20021;-45
2021/07/12 09:59:05;;;;;;;4.95;3.17;;;;;;;;;;5035822;28;20028;-47
2021/07/12 10:01:31;;;;;;;15.85;3.42;;;;;;;;;;5037460;28;20095;-47
2021/07/12 10:03:56;;;;;;;6.80;2.42;;;;;;;;;;5031633;28;20025;-49
2021/07/12 10:06:21;;;;;;;7.55;2.47;;;;;;;;;;5033938;28;20388;-50
2021/07/12 10:08:47;;;;;;;17.42;3.33;;;;;;;;;;5032921;28;20119;-46
2021/07/12 10:11:12;;;;;;;4.47;2.33;;;;;;;;;;5035565;28;20039;-43
2021/07/12 10:13:38;;;;;;;3.83;2.08;;;;;;;;;;5037044;28;20036;-45
2021/07/12 10:16:03;;;;;;;12.10;4.57;;;;;;;;;;5038656;28;20056;-45
2021/07/12 10:18:29;;;;;;;5.10;3.35;;;;;;;;;;5039742;28;20518;-45
2021/07/12 10:20:54;;;;;;;16.27;3.88;;;;;;;;;;5033413;28;20030;-46
2021/07/12 10:23:20;;;;;;;6.82;3.97;;;;;;;;;;5038002;28;20057;-48
2021/07/12 10:25:46;;;;;;;10.45;3.08;;;;;;;;;;5034131;28;20093;-43
2021/07/12 10:28:12;;;;;;;12.30;3.70;;;;;;;;;;5036049;28;20112;-45
2021/07/12 10:30:37;;;;;;;5.18;3.08;;;;;;;;;;5035400;28;20497;-42
2021/07/12 10:33:07;;;;;;;5.55;2.10;;;;;;;;;;5033674;28;20087;-44
2021/07/12 10:35:36;;;;;;;17.23;3.85;;;;;;;;;;5035298;28;20520;-44
2021/07/12 10:38:02;;;;;;;5.97;3.53;;;;;;;;;;5034592;28;20029;-44
2021/07/12 10:40:43;;;;;;;3.92;2.35;;;;;;;;;;5035843;28;20535;-41
2021/07/12 10:43:08;;;;;;;9.10;3.85;;;;;;;;;;5036586;28;20071;-44
2021/07/12 10:45:35;;;;;;;5.30;2.15;;;;;;;;;;5035826;28;20024;-46
2021/07/12 10:48:05;;;;;;;18.65;4.25;;;;;;;;;;5035386;28;20052;-45
2021/07/12 10:50:33;;;;;;;4.15;2.60;;;;;;;;;;5036232;28;20017;-45
2021/07/12 10:52:59;;;;;;;13.60;2.80;;;;;;;;;;5033322;28;20035;-47
2021/07/12 10:55:31;;;;;;;5.50;2.58;;;;;;;;;;5031064;28;20104;-50
2021/07/12 10:58:15;;;;;;;3.53;2.17;;;;;;;;;;5035550;28;20087;-47
2021/07/12 11:00:41;;;;;;;12.63;2.53;;;;;;;;;;5031351;28;20618;-49
2021/07/12 11:03:26;;;;;;;8.65;3.28;;;;;;;;;;5038685;28;20088;-44
2021/07/12 11:05:51;;;;;;;5.90;3.20;;;;;;;;;;5031153;28;20064;-50
2021/07/12 11:08:35;;;;;;;12.32;2.22;;;;;;;;;;5035282;28;20060;-47
2021/07/12 11:11:01;;;;;;;14.60;2.55;;;;;;;;;;5035183;28;20454;-48
2021/07/12 11:13:46;;;;;;;7.05;4.00;;;;;;;;;;5032946;28;20517;-46
2021/07/12 11:16:16;;;;;;;10.55;3.88;;;;;;;;;;5034986;28;20021;-44
2021/07/12 11:18:41;;;;;;;4.57;2.83;;;;;;;;;;5038735;28;20024;-43
2021/07/12 11:21:10;;;;;;;7.25;2.35;;;;;;;;;;5036824;28;20022;-44
2021/07/12 11:23:47;;;;;;;4.82;2.30;;;;;;;;;;5031691;28;20026;-43
2021/07/12 11:26:19;;;;;;;6.43;4.13;;;;;;;;;;5032881;28;20159;-42
2021/07/12 11:28:45;;;;;;;26.27;6.60;;;;;;;;;;5034974;28;20031;-46
2021/07/12 11:31:29;;;;;;;11.80;4.57;;;;;;;;;;5030981;28;20033;-44
2021/07/12 11:33:57;;;;;;;9.73;2.78;;;;;;;;;;5037810;28;20025;-43
2021/07/12 11:36:22;;;;;;;6.63;3.28;;;;;;;;;;5035590;28;20060;-44
2021/07/12 11:38:48;;;;;;;3.65;2.65;;;;;;;;;;5031676;28;20740;-43
2021/07/12 11:41:13;;;;;;;6.70;2.80;;;;;;;;;;5032173;28;20013;-44
2021/07/12 11:43:38;;;;;;;26.65;4.55;;;;;;;;;;5034866;28;20040;-43
2021/07/12 11:46:03;;;;;;;10.18;3.50;;;;;;;;;;5031586;28;20124;-45
2021/07/12 11:48:29;;;;;;;4.78;2.85;;;;;;;;;;5031869;28;20024;-48
2021/07/12 11:50:54;;;;;;;10.68;3.95;;;;;;;;;;5037398;28;20090;-48
2021/07/12 11:53:19;;;;;;;29.38;10.63;;;;;;;;;;5030952;28;20036;-46
2021/07/12 11:55:45;;;;;;;12.57;3.97;;;;;;;;;;5034654;28;20559;-45
2021/07/12 11:58:10;;;;;;;12.23;4.25;;;;;;;;;;5032578;28;20053;-44
2021/07/12 12:00:37;;;;;;;15.70;3.67;;;;;;;;;;5034007;28;20029;-44
2021/07/12 12:03:08;;;;;;;26.80;5.72;;;;;;;;;;5032213;28;20036;-45
2021/07/12 12:05:34;;;;;;;7.90;4.05;;;;;;;;;;5029761;28;20021;-45
2021/07/12 12:08:00;;;;;;;8.50;2.75;;;;;;;;;;5033569;28;20048;-45
2021/07/12 12:10:27;;;;;;;8.82;2.30;;;;;;;;;;5035343;28;20116;-44
2021/07/12 12:13:03;;;;;;;5.05;2.28;;;;;;;;;;5034803;28;20025;-43
2021/07/12 12:15:28;;;;;;;10.38;2.75;;;;;;;;;;5031751;28;20017;-45
2021/07/12 12:17:55;;;;;;;8.90;2.72;;;;;;;;;;5033795;28;20602;-43
2021/07/12 12:20:39;;;;;;;10.05;3.65;;;;;;;;;;5038388;28;20017;-43
2021/07/12 12:23:19;;;;;;;10.50;3.75;;;;;;;;;;5050824;28;20017;-44
2021/07/12 12:25:46;;;;;;;18.67;7.47;;;;;;;;;;5035249;28;20022;-46
2021/07/12 12:28:22;;;;;;;5.80;4.82;;;;;;;;;;5036337;28;20078;-47
2021/07/12 12:30:47;;;;;;;12.50;3.42;;;;;;;;;;5035904;28;20032;-44
2021/07/12 12:33:13;;;;;;;10.88;4.80;;;;;;;;;;5033744;28;20029;-46
2021/07/12 12:35:38;;;;;;;4.47;2.47;;;;;;;;;;5031873;28;20048;-44
2021/07/12 12:38:12;;;;;;;6.50;2.22;;;;;;;;;;5036308;28;20143;-44
2021/07/12 12:40:37;;;;;;;9.60;3.75;;;;;;;;;;5033806;28;20079;-44
2021/07/12 12:43:11;;;;;;;7.00;4.15;;;;;;;;;;5035386;28;20022;-45
2021/07/12 12:45:43;;;;;;;16.23;10.60;;;;;;;;;;5038174;28;20440;-48
2021/07/12 12:48:08;;;;;;;8.88;3.58;;;;;;;;;;5032737;28;20017;-45
2021/07/12 12:50:38;;;;;;;12.40;4.25;;;;;;;;;;5035017;28;20029;-44
2021/07/12 12:53:04;;;;;;;18.85;4.97;;;;;;;;;;5031965;28;20084;-46
2021/07/12 12:55:29;;;;;;;35.78;3.25;;;;;;;;;;5034402;28;20131;-49
2021/07/12 12:58:05;;;;;;;9.63;2.53;;;;;;;;;;5035333;28;20116;-45
2021/07/12 13:00:30;;;;;;;9.18;3.55;;;;;;;;;;5034107;28;20676;-45
2021/07/12 13:02:56;;;;;;;6.68;2.22;;;;;;;;;;5037833;28;20034;-44
2021/07/12 13:05:21;;;;;;;6.22;2.35;;;;;;;;;;5037630;28;20017;-46
2021/07/12 13:07:54;;;;;;;10.20;4.30;;;;;;;;;;5039737;28;20053;-48
2021/07/12 13:10:23;;;;;;;3.90;1.52;;;;;;;;;;5034130;28;20053;-48
2021/07/12 13:12:50;;;;;;;13.63;3.10;;;;;;;;;;5036212;28;20102;-43
2021/07/12 13:15:24;;;;;;;9.20;2.60;;;;;;;;;;5037968;28;20025;-47
2021/07/12 13:17:53;;;;;;;5.07;3.00;;;;;;;;;;5037652;28;20078;-49
2021/07/12 13:20:23;;;;;;;11.20;3.05;;;;;;;;;;5038440;28;20021;-50
2021/07/12 13:22:52;;;;;;;3.78;2.72;;;;;;;;;;5037615;28;20021;-52
2021/07/12 13:25:19;;;;;;;4.22;1.50;;;;;;;;;;5036951;28;20021;-49
2021/07/12 13:28:03;;;;;;;13.10;6.05;;;;;;;;;;5036768;28;20022;-49
2021/07/12 13:30:31;;;;;;;6.57;4.32;;;;;;;;;;5037054;28;20021;-50
2021/07/12 13:32:57;;;;;;;7.43;3.60;;;;;;;;;;5037189;28;20045;-44
2021/07/12 13:35:26;;;;;;;5.15;2.78;;;;;;;;;;5036680;28;20559;-45
2021/07/12 13:37:52;;;;;;;12.53;4.83;;;;;;;;;;5034353;28;20013;-43
2021/07/12 13:40:18;;;;;;;18.00;4.50;;;;;;;;;;5050301;28;20549;-43
2021/07/12 13:42:43;;;;;;;10.82;3.95;;;;;;;;;;5038196;28;20013;-64
2021/07/12 13:45:09;;;;;;;9.63;3.72;;;;;;;;;;5037384;28;20082;-64
2021/07/12 13:47:34;;;;;;;6.70;3.22;;;;;;;;;;5038385;28;20049;-64
2021/07/12 13:50:00;;;;;;;5.75;2.45;;;;;;;;;;5035646;28;20032;-63
2021/07/12 13:52:25;;;;;;;13.00;2.78;;;;;;;;;;5035231;28;20680;-64
2021/07/12 13:54:51;;;;;;;3.88;2.13;;;;;;;;;;5037826;28;20025;-64
2021/07/12 13:57:16;;;;;;;10.98;3.65;;;;;;;;;;5043490;28;20017;-63
2021/07/12 13:59:43;;;;;;;6.15;2.20;;;;;;;;;;5036121;28;20488;-64
2021/07/12 14:02:12;;;;;;;3.60;2.08;;;;;;;;;;5036185;28;20026;-64
2021/07/12 14:04:38;;;;;;;10.45;3.03;;;;;;;;;;5034594;28;20017;-65
2021/07/12 14:07:04;;;;;;;6.85;3.92;;;;;;;;;;5029540;28;20483;-63
2021/07/12 14:09:29;;;;;;;6.60;3.83;;;;;;;;;;5033887;28;20104;-64
2021/07/12 14:11:55;;;;;;;12.55;3.72;;;;;;;;;;5032619;28;20017;-64
2021/07/12 14:14:20;;;;;;;8.05;2.88;;;;;;;;;;5036272;28;20870;-64
2021/07/12 14:16:45;;;;;;;9.32;4.13;;;;;;;;;;5037728;28;20032;-63
2021/07/12 14:19:11;;;;;;;13.35;3.40;;;;;;;;;;5035733;28;20024;-63
2021/07/12 14:21:37;;;;;;;12.30;3.95;;;;;;;;;;5038292;28;20111;-63
2021/07/12 14:24:03;;;;;;;12.52;4.75;;;;;;;;;;5035845;28;20049;-64
2021/07/12 14:26:28;;;;;;;9.55;2.88;;;;;;;;;;5035369;28;20045;-63
2021/07/12 14:28:53;;;;;;;9.00;4.15;;;;;;;;;;5036478;28;20026;-64
2021/07/12 14:31:19;;;;;;;4.75;3.80;;;;;;;;;;5033143;28;20029;-64
2021/07/12 14:33:45;;;;;;;8.38;3.83;;;;;;;;;;5033798;28;20499;-62
2021/07/12 14:36:10;;;;;;;4.85;1.80;;;;;;;;;;5035909;28;20014;-64
2021/07/12 14:38:36;;;;;;;3.80;2.35;;;;;;;;;;5032861;28;20036;-64
2021/07/12 14:41:01;;;;;;;8.93;3.72;;;;;;;;;;5039724;28;20024;-64
2021/07/12 14:43:28;;;;;;;7.28;4.00;;;;;;;;;;5036864;28;20049;-64